• Join FlightAware (Why Join?)
  • Login
  • US Flag 
07:30AM EST


 

Airport Tracker/Info


-or-


 

Live Flight TrackerFlight Track Log ✈ N650CH ✈ 26-Jun-2013 ✈ KDPA - KSTP

Flight Track Log - Related Links

Times and Time Zones

All times are in EDT time to prevent confusion due to time zone crossing. See the N650CH flight status page for this flight to view local times or setup timezone preferences in your user account.

Time Position Orientation Groundspeed Altitude Reporting Facility
EDT Latitude Longitude Course Direction KTS MPH feet Rate Location/Type
04:06PM 41.8744 -88.3103 352° North 227 261 2,800  Level Chicago Center
04:07PM 41.9531 -88.3253 352° North 273 314 4,600 1,980 Climbing Chicago Center
04:08PM 41.9919 -88.2400 58° Northeast 269 310 7,000 1,800 Climbing Chicago Center
04:09PM 42.0508 -88.1736 40° Northeast 286 329 8,400 1,260 Climbing Chicago Center
04:10PM 42.1028 -88.1233 36° Northeast 288 331 9,700 1,560 Climbing Chicago Center
04:11PM 42.1892 -88.0544 31° Northeast 312 359 11,700 1,920 Climbing Chicago Center
04:12PM 42.2917 -88.0625 357° North 310 357 13,700 1,620 Climbing Chicago Center
04:13PM 42.3700 -88.0589 North 313 360 15,100 1,560 Climbing Chicago Center
04:14PM 42.4344 -88.1456 315° West 312 359 17,000 1,800 Climbing Chicago Center
04:15PM 42.4394 -88.2639 273° West 311 358 18,900 1,740 Climbing Chicago Center
04:16PM 42.4469 -88.3808 275° West 310 357 20,600 1,560 Climbing Chicago Center
04:17PM 42.4511 -88.4978 273° West 310 357 22,200 1,560 Climbing Chicago Center
04:18PM 42.4561 -88.6178 273° West 317 365 23,900 1,560 Climbing Chicago Center
04:19PM 42.4619 -88.7375 274° West 318 366 25,500 1,680 Climbing Chicago Center
04:20PM 42.4672 -88.8769 273° West 319 367 27,400 1,200 Climbing Chicago Center
04:21PM 42.4722 -89.0014 273° West 327 376 28,000 240 Climbing Chicago Center
04:22PM 42.4781 -89.1453 273° West 377 434 28,000  Level Chicago Center
04:23PM 42.4847 -89.2922 274° West 391 450 28,000  Level Chicago Center
04:24PM 42.4917 -89.4439 274° West 401 461 28,000  Level Chicago Center
04:25PM 42.4961 -89.6114 272° West 388 447 28,000  Level Chicago Center
04:26PM 42.5114 -89.7508 279° West 380 437 28,000  Level Chicago Center
04:28PM 42.5469 -89.8867 290° West 381 438 28,000  Level Chicago Center
04:29PM 42.5725 -90.0158 285° West 375 432 28,000  Level Chicago Center
04:30PM 42.6025 -90.1486 287° West 375 432 28,000  Level Chicago Center
04:31PM 42.6378 -90.3111 286° West 378 435 28,000  Level Chicago Center
04:32PM 42.6661 -90.4483 286° West 383 441 28,000  Level Chicago Center
04:33PM 42.6964 -90.5856 287° West 384 442 28,000  Level Chicago Center
04:34PM 42.7261 -90.7250 286° West 387 445 28,000  Level Chicago Center
04:35PM 42.7556 -90.8650 286° West 390 449 28,000  Level Chicago Center
04:36PM 42.7906 -91.0317 286° West 388 447 28,000  Level Chicago Center
04:37PM 42.8206 -91.1708 286° West 391 450 28,000  Level Chicago Center
04:38PM 42.8494 -91.3089 286° West 385 443 28,000  Level Chicago Center
04:39PM 42.8769 -91.4456 285° West 383 441 28,000  Level Chicago Center
04:40PM 42.9006 -91.5525 287° West 384 442 28,000  Level Minneapolis Center
04:41PM 42.9278 -91.6889 285° West 384 442 28,000  Level Minneapolis Center
04:42PM 42.9531 -91.8247 284° West 380 437 28,000  Level Minneapolis Center
04:43PM 42.9803 -91.9614 285° West 379 436 28,000  Level Minneapolis Center
04:44PM 43.0128 -92.1258 285° West 378 435 28,000  Level Minneapolis Center
04:45PM 43.0408 -92.2617 286° West 378 435 28,000  Level Minneapolis Center
04:46PM 43.0672 -92.3994 285° West 378 435 28,000  Level Minneapolis Center
04:47PM 43.1144 -92.5256 297° West 386 444 28,000  Level Minneapolis Center
04:48PM 43.1967 -92.6503 312° West 372 428 28,000  Level Minneapolis Center
04:49PM 43.2653 -92.7575 311° West 376 433 28,000  Level Minneapolis Center
04:50PM 43.3342 -92.8628 312° West 376 433 28,000 -600 Level Minneapolis Center
04:51PM 43.4031 -92.9667 312° West 372 428 26,800 -1,620 Descending Minneapolis Center
04:52PM 43.4722 -93.0739 312° West 375 432 24,700 -2,040 Descending Minneapolis Center
04:53PM 43.5617 -93.1683 323° Northwest 363 418 22,600 -2,160 Descending Minneapolis Center
04:54PM 43.6589 -93.2067 344° North 363 418 20,200 -2,340 Descending Minneapolis Center
04:55PM 43.7542 -93.2503 342° North 362 417 17,800 -2,340 Descending Minneapolis Center
04:56PM 43.8472 -93.2892 343° North 355 409 15,400 -2,580 Descending Minneapolis Center
04:57PM 43.9517 -93.3364 342° North 333 383 12,500 -2,520 Descending Minneapolis Center
04:58PM 44.0322 -93.3703 343° North 311 358 10,200 -1,980 Descending Minneapolis Center
04:59PM 44.1064 -93.4031 342° North 284 327 8,500 -1,080 Descending Minneapolis Center
05:00PM 44.1789 -93.4364 342° North 276 318 8,000 -540 Descending Minneapolis Center
05:01PM 44.2489 -93.4617 345° North 264 304 7,400 -1,200 Descending Minneapolis Center
05:02PM 44.3303 -93.4153 22° Northeast 285 328 5,600 -1,680 Descending Minneapolis Center
05:03PM 44.3919 -93.3469 38° Northeast 286 329 4,000 -1,260 Descending Minneapolis Center
05:04PM 44.4561 -93.2850 35° Northeast 282 325 3,000 -540 Descending Minneapolis Center
05:05PM 44.5139 -93.2336 32° Northeast 252 290 3,000  Level Minneapolis Center
05:07PM 44.6394 -93.1256 31° Northeast 245 282 3,000  Level Minneapolis Center
05:09PM 44.6972 -93.0767 31° Northeast 248 285 3,000 -240 Level Minneapolis Center
05:10PM 44.7564 -93.0261 31° Northeast 253 291 2,600 -240 Descending Minneapolis Center
05:11PM 44.8208 -93.0053 13° North 243 280 2,500 -420 Descending Minneapolis Center
05:12PM 44.8861 -93.0153 354° North 191 220 1,800 -780 Descending Minneapolis Center
05:13PM 44.9222 -93.0497 326° Northwest 157 181 1,000 -780 Descending Minneapolis Center
05:15PM 44.9333 -93.0500 43° Northeast  Level FlightAware Approximate
05:22PM 44.9346 -93.0603 43° Northeast  Level Estimated